Terminal Aerodrome Forecast
Issued by NWS Melbourne, FL

Home | Current Version | Previous Version | Text Only | Print | Product List | Glossary On
Versions: 1 2 3 4 5 6 7 8 9 10 11 12 13 14
975
FTUS42 KMLB 242136 AAB
TAFDAB
TAF AMD
KDAB 242136Z 2422/2518 05016KT P6SM VCSH SCT025 SCT035 SCT150=

USA.gov is the U.S. government's official web portal to all federal, state and local government web resources and services.